Portada
METAR-TAF:

METAR-TAF

Aeroports :

Nueva Loja, Equador

latitud: 00-05-33N, longitud: 076-52-10W, altitud: 299 m

Observació

L'informe es va fer fa 4 hores i 17 minuts, a les 23:00 UTC
Vent 2 kt del Nord
Temperatura 27°C
Humitat 74%
Pressió 1012 hPa
Visibilitat 10 km o més
Núvols disperses a una alçada de 2000 ft
Cel ennuvolat a una alçada de 10000 ft

METAR: SENL 212300Z 01002KT 9999 SCT020 BKN100 27/22 Q1012 RMK A2990

Hora: 22:17 (03:17 UTC)


TAF: manca

Observacions i pronòstics meteorològics de més de 4000 aeroports (METAR i TAF).

Les estacions disponibles són els punts grocs i vermells al mapa.

Posi el ratolí al punt desitjat per veure el nom de l'estació.

Feu clic per veure les observacions i els pronòstics meteorològics.

Per canviar el mapa: feu clic els botons verds amb una creu de color negre per apropar; al botó verd amb un guió per allunyar la imatge; o en les fletxes verdes per a mapes adjacents.


METAR-TAF: